To NAV CANADA Home Page Login to a new session Search on AWWS site Feedback and Comments Disclaimer Vers la page française équivalente Tips FAQ What's new on the site To the Forecasts and Observations / NOTAM section To "File a Flight Plan" website Publications and other links Update of the User's profile FIC Telephone Numbers My Weather Data Folder Route Weather Data Regional Weather Data Local Weather Data To the Forecasts and Observations / NOTAM section
Request Generated 08/04/2015 at 15:48:39 UTC . Weather information available at that time is displayed.

METAR/TAF

FARO/YT    

METAR CZFA 041500Z 33002KT 30SM SKC 09/05 A3008 RMK SLP199=
METAR CZFA 041400Z 00000KT 30SM SKC 08/06 A3010 RMK SLP205=
METAR CZFA 041300Z 00000KT 30SM SKC 06/05 A3010 RMK CLIMAT
22.6/6.3/0.0 SLP209=

TAF CZFA 041438Z 0415/0501 VRB03KT P6SM SKC
RMK NXT FCST BY 041800Z=
Your time UTC time
Weather data provided by Environment Canada and NAV CANADA